createdAt,value
2018-07-03T00:01:12.309Z,1.60
2018-07-03T00:03:41.670Z,2.10
2018-07-03T00:06:11.926Z,1.80
2018-07-03T00:08:39.732Z,2.00
2018-07-03T00:11:08.292Z,2.43
2018-07-03T00:13:37.413Z,2.10
2018-07-03T00:16:11.528Z,2.00
2018-07-03T00:18:40.898Z,2.00
2018-07-03T00:21:08.777Z,2.43
2018-07-03T00:23:37.571Z,1.90
2018-07-03T00:26:06.254Z,1.80
2018-07-03T00:28:34.288Z,1.80
2018-07-03T00:31:04.393Z,1.80
2018-07-03T00:33:33.265Z,2.00
2018-07-03T00:36:02.232Z,1.87
2018-07-03T00:38:30.130Z,2.10
2018-07-03T00:40:58.166Z,2.00
2018-07-03T00:43:26.298Z,2.13
2018-07-03T00:45:55.132Z,1.97
2018-07-03T00:48:23.431Z,2.27
2018-07-03T00:50:51.844Z,1.93
2018-07-03T00:53:20.458Z,1.70
2018-07-03T00:55:49.085Z,2.20
2018-07-03T00:58:19.335Z,2.53
2018-07-03T01:00:52.916Z,2.03
2018-07-03T01:03:21.653Z,1.90
2018-07-03T01:05:50.178Z,1.97
2018-07-03T01:08:21.731Z,1.87
2018-07-03T01:10:50.218Z,1.80
2018-07-03T01:13:18.264Z,1.90
2018-07-03T01:15:48.577Z,1.70
2018-07-03T01:18:16.921Z,1.60
2018-07-03T01:20:46.077Z,2.40
2018-07-03T01:23:15.440Z,2.10
2018-07-03T01:25:44.409Z,2.13
2018-07-03T01:28:12.679Z,1.60
2018-07-03T01:30:41.693Z,1.77
2018-07-03T01:33:09.972Z,1.77
2018-07-03T01:35:38.585Z,1.60
2018-07-03T01:38:07.309Z,1.73
2018-07-03T01:40:36.496Z,2.07
2018-07-03T01:43:05.601Z,1.80
2018-07-03T01:45:36.906Z,2.00
2018-07-03T01:48:04.776Z,2.20
2018-07-03T01:50:34.359Z,1.90
2018-07-03T01:53:03.084Z,1.70
2018-07-03T01:55:31.663Z,2.67
2018-07-03T01:57:59.540Z,1.87
2018-07-03T02:00:33.909Z,1.90
2018-07-03T02:03:02.433Z,1.70
2018-07-03T02:05:30.079Z,1.77
2018-07-03T02:07:58.159Z,1.93
2018-07-03T02:10:26.665Z,2.20
2018-07-03T02:12:54.676Z,2.00
2018-07-03T02:15:22.975Z,1.83
2018-07-03T02:17:50.961Z,2.10
2018-07-03T02:20:18.834Z,2.23
2018-07-03T02:22:47.017Z,2.00
2018-07-03T02:25:15.387Z,2.07
2018-07-03T02:27:43.149Z,1.90
2018-07-03T02:30:11.046Z,2.77
2018-07-03T02:32:39.709Z,2.27
2018-07-03T02:35:07.960Z,2.13
2018-07-03T02:37:36.441Z,4.17
2018-07-03T02:40:08.979Z,3.10
2018-07-03T02:42:37.115Z,2.57
2018-07-03T02:45:06.507Z,2.63
2018-07-03T02:47:35.599Z,2.63
2018-07-03T02:50:04.907Z,1.77
2018-07-03T02:52:32.733Z,2.30
2018-07-03T02:55:01.135Z,2.17
2018-07-03T02:57:29.316Z,1.90
2018-07-03T02:59:57.387Z,2.23
2018-07-03T03:02:25.732Z,1.93
2018-07-03T03:04:54.443Z,1.90
2018-07-03T03:07:23.642Z,2.17
2018-07-03T03:09:52.095Z,2.27
2018-07-03T03:12:20.742Z,1.90
2018-07-03T03:14:50.293Z,2.10
2018-07-03T03:17:18.667Z,1.83
2018-07-03T03:19:47.598Z,1.90
2018-07-03T03:22:16.410Z,2.17
2018-07-03T03:24:44.861Z,2.37
2018-07-03T03:27:13.584Z,2.30
2018-07-03T03:29:41.976Z,2.07
2018-07-03T03:32:09.966Z,2.30
2018-07-03T03:34:38.916Z,1.83
2018-07-03T03:37:08.069Z,2.03
2018-07-03T03:39:36.468Z,2.80
2018-07-03T03:42:07.138Z,2.47
2018-07-03T03:44:35.586Z,2.43
2018-07-03T03:47:04.264Z,2.23
2018-07-03T03:49:32.462Z,2.00
2018-07-03T03:52:06.538Z,2.00
2018-07-03T03:54:34.427Z,2.00
2018-07-03T03:57:02.571Z,2.63
2018-07-03T03:59:30.441Z,2.87
2018-07-03T04:01:59.984Z,2.80
2018-07-03T04:04:27.847Z,2.63
2018-07-03T04:06:57.721Z,3.20
2018-07-03T04:09:29.137Z,2.83
2018-07-03T04:11:58.680Z,2.50
2018-07-03T04:14:27.981Z,2.60
2018-07-03T04:17:06.907Z,2.63
2018-07-03T04:19:38.857Z,2.60
2018-07-03T04:22:08.786Z,2.87
2018-07-03T04:24:47.568Z,2.40
2018-07-03T04:27:15.420Z,2.33
2018-07-03T04:29:43.570Z,2.43
2018-07-03T04:32:12.746Z,2.57
2018-07-03T04:34:40.977Z,2.57
2018-07-03T04:37:08.823Z,2.43
2018-07-03T04:39:37.162Z,2.17
2018-07-03T04:42:06.362Z,2.80
2018-07-03T04:44:35.022Z,2.80
2018-07-03T04:47:02.861Z,1.97
2018-07-03T04:49:30.643Z,2.87
2018-07-03T04:51:58.907Z,2.57
2018-07-03T04:54:27.179Z,3.00
2018-07-03T04:56:56.096Z,3.10
2018-07-03T04:59:24.184Z,3.07
2018-07-03T05:01:52.006Z,2.73
2018-07-03T05:04:19.731Z,2.33
2018-07-03T05:06:47.851Z,2.40
2018-07-03T05:09:16.745Z,2.00
2018-07-03T05:11:44.656Z,2.17
2018-07-03T05:14:12.597Z,3.20
2018-07-03T05:16:41.181Z,2.40
2018-07-03T05:19:09.476Z,2.30
2018-07-03T05:21:37.596Z,2.70
2018-07-03T05:24:06.237Z,2.20
2018-07-03T05:26:34.774Z,2.17
2018-07-03T05:29:02.939Z,2.00
2018-07-03T05:31:36.587Z,1.83
2018-07-03T05:34:04.818Z,1.93
2018-07-03T05:36:32.479Z,1.87
2018-07-03T05:39:00.145Z,1.93
2018-07-03T05:41:27.766Z,2.17
2018-07-03T05:43:55.348Z,2.53
2018-07-03T05:46:23.007Z,2.07
2018-07-03T05:48:50.821Z,2.05
2018-07-03T05:51:18.524Z,1.23
2018-07-03T05:53:46.955Z,1.60
2018-07-03T05:56:17.402Z,1.27
2018-07-03T05:58:45.228Z,1.27
2018-07-03T06:01:13.179Z,1.50
2018-07-03T06:03:42.697Z,2.10
2018-07-03T06:06:11.499Z,1.50
2018-07-03T07:12:40.424Z,1.30
2018-07-03T07:15:11.846Z,1.10
2018-07-03T07:20:10.245Z,1.70
2018-07-03T07:22:42.835Z,1.43
2018-07-03T07:27:51.013Z,1.40
2018-07-03T07:30:20.910Z,1.30
2018-07-03T07:32:52.304Z,1.03
2018-07-03T07:35:22.122Z,1.50
2018-07-03T07:37:52.227Z,1.20
2018-07-03T07:40:23.488Z,1.30
2018-07-03T07:42:52.854Z,1.23
2018-07-03T07:45:22.668Z,1.23
2018-07-03T07:47:52.861Z,1.50
2018-07-03T07:50:32.281Z,1.17
2018-07-03T07:53:02.400Z,1.27
2018-07-03T07:55:31.521Z,1.30
2018-07-03T07:58:02.362Z,1.63
2018-07-03T08:00:32.778Z,1.53
2018-07-03T08:03:03.664Z,1.40
2018-07-03T08:05:35.044Z,1.27
2018-07-03T08:08:04.767Z,1.50
2018-07-03T08:10:35.719Z,1.80
2018-07-03T08:13:05.170Z,2.70
2018-07-03T08:15:34.503Z,1.47
2018-07-03T08:18:04.878Z,1.30
2018-07-03T08:20:35.910Z,1.37
2018-07-03T08:23:09.592Z,1.30
2018-07-03T08:25:41.303Z,1.63
2018-07-03T08:28:10.645Z,1.50
2018-07-03T08:30:44.350Z,1.50
2018-07-03T08:33:15.631Z,1.20
2018-07-03T08:35:46.086Z,1.40
2018-07-03T08:38:17.909Z,1.50
2018-07-03T08:40:50.564Z,1.37
2018-07-03T08:48:18.672Z,1.10
2018-07-03T08:50:51.075Z,1.30
2018-07-03T09:03:19.072Z,1.20
2018-07-03T09:05:48.731Z,1.63
2018-07-03T09:10:47.944Z,1.10
2018-07-03T09:13:21.563Z,8.63
2018-07-03T09:15:54.553Z,1.10
2018-07-03T09:18:27.631Z,1.30
2018-07-03T09:20:57.410Z,1.17
2018-07-03T09:36:04.436Z,1.20
2018-07-03T09:38:34.076Z,1.13
2018-07-03T09:41:04.569Z,1.20
2018-07-03T09:43:34.750Z,1.60
2018-07-03T09:46:06.655Z,1.50
2018-07-03T09:48:41.475Z,1.63
2018-07-03T09:51:13.340Z,1.40
2018-07-03T09:53:43.034Z,1.57
2018-07-03T09:56:13.277Z,1.50
2018-07-03T09:58:43.658Z,2.03
2018-07-03T10:01:18.944Z,1.60
2018-07-03T10:03:51.202Z,1.10
2018-07-03T10:06:22.210Z,1.57
2018-07-03T10:08:53.719Z,1.67
2018-07-03T10:11:23.699Z,1.60
2018-07-03T10:13:57.114Z,1.20
2018-07-03T10:16:27.483Z,1.10
2018-07-03T10:19:00.492Z,1.80
2018-07-03T10:21:31.393Z,1.63
2018-07-03T10:24:01.741Z,1.63
2018-07-03T10:26:32.393Z,1.77
2018-07-03T10:29:02.409Z,1.60
2018-07-03T10:31:33.072Z,1.63
2018-07-03T10:34:03.553Z,1.30
2018-07-03T10:36:34.898Z,1.30
2018-07-03T10:39:08.323Z,1.53
2018-07-03T10:41:38.277Z,1.27
2018-07-03T10:44:08.952Z,1.70
2018-07-03T10:46:38.151Z,1.50
2018-07-03T10:49:12.476Z,1.20
2018-07-03T10:51:42.161Z,1.30
2018-07-03T10:54:12.625Z,1.70
2018-07-03T10:56:45.097Z,1.50
2018-07-03T10:59:15.835Z,1.70
2018-07-03T11:01:46.219Z,1.70
2018-07-03T11:09:13.500Z,1.50
2018-07-03T11:11:45.161Z,1.40
2018-07-03T11:14:22.138Z,1.60
2018-07-03T11:16:53.174Z,1.20
2018-07-03T11:19:24.973Z,1.70
2018-07-03T11:22:03.629Z,1.50
2018-07-03T11:24:34.088Z,1.60
2018-07-03T11:27:05.347Z,1.40
2018-07-03T11:29:38.366Z,1.60
2018-07-03T11:32:08.768Z,1.10
2018-07-03T11:34:39.086Z,1.00
2018-07-03T11:37:12.518Z,1.20
2018-07-03T11:39:43.905Z,1.27
2018-07-03T11:42:14.925Z,1.33
2018-07-03T11:44:46.603Z,1.40
2018-07-03T11:47:17.447Z,1.10
2018-07-03T11:49:48.503Z,1.00
2018-07-03T11:52:21.554Z,1.10
2018-07-03T11:54:52.051Z,1.00
2018-07-03T11:57:21.222Z,1.30
2018-07-03T11:59:52.302Z,1.20
2018-07-03T12:02:23.052Z,1.40
2018-07-03T12:04:56.054Z,1.37
2018-07-03T12:07:26.425Z,1.57
2018-07-03T12:09:57.240Z,1.10
2018-07-03T12:12:27.057Z,1.10
2018-07-03T12:15:00.643Z,1.33
2018-07-03T12:17:30.724Z,1.33
2018-07-03T12:20:03.703Z,1.33
2018-07-03T12:22:37.504Z,1.30
2018-07-03T12:25:07.784Z,1.43
2018-07-03T12:27:37.510Z,1.10
2018-07-03T12:30:10.293Z,1.43
2018-07-03T12:32:49.532Z,1.13
2018-07-03T12:35:22.336Z,1.20
2018-07-03T12:40:34.602Z,1.20
2018-07-03T12:43:13.016Z,1.43
2018-07-03T12:45:43.739Z,1.17
2018-07-03T12:48:14.477Z,1.67
2018-07-03T12:50:43.741Z,1.90
2018-07-03T12:53:19.283Z,1.37
2018-07-03T12:55:56.855Z,1.50
2018-07-03T12:58:26.372Z,1.30
2018-07-03T13:00:56.909Z,1.50
2018-07-03T13:03:27.214Z,1.30
2018-07-03T13:05:56.533Z,1.00
2018-07-03T13:10:56.193Z,1.00
2018-07-03T13:13:25.288Z,1.00
2018-07-03T13:15:54.380Z,1.20
2018-07-03T13:18:25.405Z,1.00
2018-07-03T13:20:55.453Z,1.40
2018-07-03T13:23:25.328Z,1.50
2018-07-03T13:25:57.053Z,1.10
2018-07-03T13:28:29.650Z,1.30
2018-07-03T13:31:01.233Z,1.17
2018-07-03T13:33:30.272Z,1.23
2018-07-03T13:36:06.162Z,1.47
2018-07-03T13:38:36.261Z,1.10
2018-07-03T13:41:05.530Z,1.23
2018-07-03T13:43:37.781Z,1.43
2018-07-03T13:46:07.445Z,1.00
2018-07-03T13:48:36.674Z,1.10
2018-07-03T13:51:07.220Z,1.60
2018-07-03T13:53:36.950Z,1.20
2018-07-03T13:56:07.815Z,1.03
2018-07-03T13:58:36.954Z,1.20
2018-07-03T14:01:07.373Z,1.70
2018-07-03T14:03:38.867Z,1.37
2018-07-03T14:06:08.148Z,1.30
2018-07-03T14:08:39.482Z,1.17
2018-07-03T14:11:12.877Z,1.40
2018-07-03T14:13:47.690Z,1.63
2018-07-03T14:16:19.325Z,1.23
2018-07-03T14:18:50.102Z,1.20
2018-07-03T14:24:00.815Z,1.30
2018-07-03T14:26:37.755Z,1.23
2018-07-03T14:29:08.796Z,1.03
2018-07-03T14:31:38.818Z,1.70
2018-07-03T14:34:08.997Z,1.37
2018-07-03T14:36:40.870Z,1.47
2018-07-03T14:39:27.144Z,1.50
2018-07-03T14:47:24.472Z,1.30
2018-07-03T14:50:03.964Z,1.10
2018-07-03T14:52:48.534Z,1.53
2018-07-03T14:55:18.963Z,1.97
2018-07-03T14:57:48.623Z,1.60
2018-07-03T15:00:18.743Z,1.37
2018-07-03T15:02:48.744Z,1.67
2018-07-03T15:05:18.509Z,1.70
2018-07-03T15:07:47.441Z,1.37
2018-07-03T15:10:16.331Z,1.37
2018-07-03T15:12:47.370Z,1.40
2018-07-03T15:15:16.936Z,1.57
2018-07-03T15:17:46.130Z,1.83
2018-07-03T15:20:15.636Z,1.47
2018-07-03T15:22:44.560Z,1.50
2018-07-03T15:25:15.129Z,1.50
2018-07-03T15:27:44.711Z,1.37
2018-07-03T15:30:18.125Z,1.23
2018-07-03T15:32:47.336Z,1.33
2018-07-03T15:35:17.540Z,1.70
2018-07-03T15:37:47.529Z,1.57
2018-07-03T15:40:17.891Z,1.33
2018-07-03T15:47:46.388Z,1.63
2018-07-03T15:50:18.065Z,1.23
2018-07-03T15:52:47.665Z,1.30
2018-07-03T15:55:18.519Z,1.30
2018-07-03T15:57:48.104Z,1.50
2018-07-03T16:09:35.514Z,1.30
2018-07-03T16:59:16.892Z,2.43
2018-07-03T17:26:40.385Z,1.70
2018-07-03T19:32:02.565Z,3.50
2018-07-03T19:34:32.656Z,3.23
2018-07-03T19:37:01.579Z,2.90
2018-07-03T19:39:31.688Z,3.33
2018-07-03T19:42:01.340Z,3.10
2018-07-03T19:54:23.764Z,7.15
2018-07-03T19:56:52.628Z,5.20
2018-07-03T19:59:22.031Z,4.13
2018-07-03T20:01:50.578Z,4.60
2018-07-03T20:04:21.102Z,2.87
2018-07-03T20:06:51.192Z,3.10
2018-07-03T20:09:20.566Z,3.57
2018-07-03T20:11:52.227Z,3.20
2018-07-03T20:14:21.822Z,3.30
2018-07-03T20:16:50.804Z,4.10
2018-07-03T20:19:19.925Z,3.50
2018-07-03T20:21:48.806Z,3.73
2018-07-03T20:24:24.850Z,3.47
2018-07-03T20:26:54.235Z,3.10
2018-07-03T20:29:23.555Z,3.63
2018-07-03T20:31:52.894Z,3.53
2018-07-03T20:34:21.378Z,3.77
2018-07-03T20:36:51.139Z,3.50
2018-07-03T20:39:21.800Z,4.30
2018-07-03T20:41:50.564Z,3.83
2018-07-03T20:44:19.985Z,4.00
2018-07-03T20:46:49.882Z,4.00
2018-07-03T20:49:19.364Z,3.90
2018-07-03T20:51:49.074Z,3.97
2018-07-03T20:54:17.928Z,3.90
2018-07-03T20:56:47.320Z,4.07
2018-07-03T20:59:17.977Z,5.60
2018-07-03T21:01:47.160Z,5.00
2018-07-03T21:04:17.315Z,3.73
2018-07-03T21:06:45.938Z,3.93
2018-07-03T21:09:14.826Z,4.27
2018-07-03T21:11:44.637Z,3.50
2018-07-03T21:16:50.341Z,3.80
2018-07-03T21:19:23.856Z,4.53
2018-07-03T21:21:53.799Z,4.23
2018-07-03T21:24:22.339Z,4.50
2018-07-03T21:26:51.570Z,4.13
2018-07-03T21:29:20.774Z,3.10
2018-07-03T21:31:48.800Z,3.87
2018-07-03T21:34:16.756Z,3.43
2018-07-03T21:36:44.880Z,3.93
2018-07-03T21:39:13.727Z,3.90
2018-07-03T21:41:42.271Z,4.13
2018-07-03T21:44:10.386Z,3.50
2018-07-03T21:46:39.277Z,3.77
2018-07-03T21:49:07.572Z,3.60
2018-07-03T21:51:37.493Z,3.47
2018-07-03T21:54:05.358Z,3.37
2018-07-03T21:56:34.274Z,4.13
2018-07-03T21:59:02.862Z,4.10
2018-07-03T22:01:31.014Z,3.33
2018-07-03T22:03:59.230Z,3.73
2018-07-03T22:06:27.416Z,4.00
2018-07-03T22:08:55.396Z,3.70
2018-07-03T22:11:23.588Z,3.93
2018-07-03T22:13:54.778Z,4.47
2018-07-03T22:16:24.742Z,3.67
2018-07-03T22:18:52.751Z,4.20
2018-07-03T22:21:20.931Z,3.97
2018-07-03T22:23:49.039Z,3.13
2018-07-03T22:26:18.041Z,3.87
2018-07-03T22:28:46.211Z,3.53
2018-07-03T22:31:14.473Z,3.80
2018-07-03T22:33:42.660Z,4.20
2018-07-03T22:36:12.691Z,4.27
2018-07-03T22:38:45.239Z,3.60
2018-07-03T22:41:13.534Z,4.10
2018-07-03T22:43:41.491Z,4.67
2018-07-03T22:46:09.189Z,4.03
2018-07-03T22:48:38.088Z,4.33
2018-07-03T22:51:06.273Z,4.03
2018-07-03T22:53:34.054Z,4.20
2018-07-03T22:56:01.972Z,4.80
2018-07-03T22:58:29.864Z,4.23
2018-07-03T23:00:58.300Z,5.00
2018-07-03T23:03:26.929Z,4.70
2018-07-03T23:05:55.232Z,4.73
2018-07-03T23:08:28.242Z,5.77
2018-07-03T23:10:57.820Z,6.20
2018-07-03T23:13:29.895Z,6.20
2018-07-03T23:15:59.307Z,5.77
2018-07-03T23:18:31.578Z,5.90
2018-07-03T23:20:59.440Z,5.40
2018-07-03T23:23:27.384Z,5.00
2018-07-03T23:25:55.640Z,5.67
2018-07-03T23:28:23.622Z,5.17
2018-07-03T23:30:51.542Z,6.37
2018-07-03T23:33:19.593Z,6.67
2018-07-03T23:35:47.508Z,5.63
2018-07-03T23:38:15.533Z,6.30
2018-07-03T23:40:43.741Z,6.57
2018-07-03T23:43:11.701Z,5.57
2018-07-03T23:45:56.762Z,5.57
2018-07-03T23:48:36.843Z,6.00
2018-07-03T23:51:10.753Z,5.87
2018-07-03T23:53:51.529Z,5.43
2018-07-03T23:56:30.602Z,5.77
2018-07-03T23:59:09.456Z,6.30
